KMFE/MFE METAR and TAF weather

Enter ICAO airport designator
Station Type Date Time Source
KMFE METAR 2024/06/16 08:53 UTC NOAA

KMFE 160853Z AUTO 14003KT 10SM CLR 26/23 A2982 RMK AO2 SLP097 T02610228 56009 $


Station Type Date Time Source
KMFE Decoded METAR 2024/06/16 08:53 UTC NOAA

MCALLEN MILLER INTERNATIONAL AIRPORT , TX, United States (KMFE) 26-11N 98-15W 38M
Jun 16, 2024 - 04:53 AM EDT / 2024.06.16 0853 UTC
Wind: from the SE (140 degrees) at 3 MPH (3 KT):0
Visibility: 10 mile(s):0
Sky conditions: clear
Temperature: 79.0 F (26.1 C)
Dew Point: 73.0 F (22.8 C)
Relative Humidity: 82%
Pressure (altimeter): 29.82 in. Hg (1009 hPa)
Pressure tendency: 0.03 inches (0.9 hPa) lower than three hours ago
ob: KMFE 160853Z AUTO 14003KT 10SM CLR 26/23 A2982 RMK AO2 SLP097 T02610228 56009
cycle: 9

Station Type Date Time Source
KMFE TAF 2024/06/16 06:22 UTC NOAA